FW1086 Weather Reports


time (UTC)temp
F
wind
direction
speed
knots
gust
knots
rain 1hr
in
rain 24hr
in
rain mn
in
humidity
%
barometer
mb
20190420221018 66 217 3.5 11.3 0.01 0.21 0.21 84 1013.3
20190420220018 67 227 4.3 13.0 0.00 0.20 0.20 82 1013.0
20190420215018 67 217 4.3 15.6 0.00 0.20 0.20 82 1012.8
20190420214018 67 227 4.3 15.6 0.00 0.20 0.20 82 1012.9
20190420213018 67 225 4.3 12.2 0.00 0.20 0.20 82 1012.6
20190420212019 67 220 4.3 12.2 0.00 0.20 0.20 82 1012.4
20190420211018 67 206 2.6 7.0 0.00 0.20 0.20 82 1012.1
20190420210018 67 211 1.7 11.3 0.00 0.20 0.20 81 1011.9
20190420205018 68 213 2.6 11.3 0.00 0.20 0.20 81 1011.6
20190420204018 68 210 2.6 11.3 0.00 0.20 0.20 80 1011.5
20190420203018 68 218 4.3 12.2 0.00 0.20 0.20 80 1011.4
20190420202018 69 205 5.2 13.9 0.00 0.20 0.20 79 1011.2
20190420201018 70 229 4.3 13.9 0.00 0.20 0.20 78 1011.6
20190420200018 70 210 2.6 13.0 0.00 0.20 0.20 78 1010.8
20190420195018 71 237 5.2 19.1 0.00 0.20 0.20 77 1010.8
20190420194018 71 239 6.1 19.1 0.00 0.20 0.20 77 1011.0
20190420193018 71 223 5.2 17.4 0.00 0.20 0.20 78 1011.2
20190420192018 70 212 6.1 17.4 0.00 0.20 0.20 78 1011.2
20190420191018 71 224 5.2 15.6 0.00 0.20 0.20 76 1011.2
20190420190020 71 205 5.2 20.0 0.00 0.20 0.20 75 1011.3
20190420185020 73 211 7.0 20.0 0.00 0.20 0.20 72 1011.3
20190420184020 72 240 6.1 19.1 0.00 0.20 0.20 74 1011.3
20190420183020 71 213 5.2 16.5 0.00 0.20 0.20 76 1011.7
20190420182020 72 220 5.2 20.0 0.00 0.20 0.20 76 1011.7
20190420181021 72 219 6.1 20.0 0.00 0.20 0.20 77 1011.6
20190420180020 72 225 7.0 19.1 0.00 0.20 0.20 77 1011.9
20190420175020 71 223 5.2 19.1 0.00 0.20 0.20 77 1012.1
20190420174020 71 217 4.3 16.5 0.00 0.20 0.20 78 1012.1
20190420173020 71 233 5.2 16.5 0.00 0.20 0.20 78 1012.0
20190420172020 71 220 5.2 15.6 0.00 0.20 0.20 78 1011.9
20190420171020 71 199 5.2 15.6 0.00 0.20 0.20 78 1012.2
20190420170020 71 220 5.2 13.0 0.00 0.20 0.20 78 1012.1
20190420165020 71 206 5.2 13.9 0.00 0.20 0.20 78 1012.1
20190420164020 71 224 5.2 18.2 0.00 0.20 0.20 79 1012.0
20190420163020 71 207 5.2 18.2 0.00 0.20 0.20 80 1012.1
20190420162020 70 222 6.1 17.4 0.00 0.20 0.20 81 1012.0
20190420161020 69 226 4.3 13.9 0.00 0.20 0.20 83 1012.1
20190420160020 68 229 3.5 9.6 0.00 0.20 0.20 85 1012.1
20190420155020 67 222 2.6 9.6 0.00 0.20 0.20 86 1012.3
20190420154020 67 228 2.6 11.3 0.00 0.20 0.20 87 1012.4
20190420153020 67 240 3.5 15.6 0.06 0.20 0.20 87 1012.2
20190420152020 66 225 4.3 15.6 0.09 0.20 0.20 87 1012.3
20190420151020 66 216 3.5 10.4 0.10 0.20 0.20 88 1012.3
20190420150020 66 229 1.7 8.7 0.11 0.20 0.20 88 1012.2
20190420145017 65 225 2.6 9.6 0.11 0.20 0.20 88 1012.4
20190420144020 65 245 3.5 12.2 0.11 0.20 0.20 88 1012.2
20190420143020 66 242 3.5 12.2 0.05 0.13 0.14 86 1012.3
20190420142020 66 233 3.5 12.2 0.02 0.10 0.11 85 1012.1
20190420141020 67 240 4.3 12.2 0.01 0.10 0.10 84 1011.6
20190420140020 67 226 5.2 11.3 0.00 0.09 0.09 84 1011.4
20190420135020 67 235 5.2 11.3 0.00 0.09 0.09 84 1011.1
20190420134020 67 219 4.3 12.2 0.00 0.09 0.09 84 1010.9
20190420133018 67 233 3.5 12.2 0.00 0.09 0.09 85 1010.6
20190420132020 67 226 3.5 11.3 0.00 0.09 0.09 85 1010.6
20190420131020 67 251 2.6 17.4 0.00 0.09 0.09 85 1010.5
20190420130020 66 236 3.5 17.4 0.00 0.09 0.09 85 1010.5
20190420125020 66 234 4.3 16.5 0.00 0.09 0.09 85 1010.5
20190420124019 66 207 3.5 12.2 0.00 0.09 0.09 85 1009.9
20190420123020 66 230 4.3 12.2 0.00 0.09 0.09 85 1009.9
20190420122020 66 226 2.6 11.3 0.00 0.09 0.09 86 1010.0
20190420121019 66 236 2.6 11.3 0.00 0.09 0.09 87 1010.0
20190420120020 66 207 3.5 10.4 0.00 0.09 0.09 87 1009.8
20190420115021 65 233 3.5 9.6 0.00 0.09 0.09 88 1009.7
20190420114020 65 227 3.5 8.7 0.01 0.09 0.09 88 1009.5
20190420113019 65 218 2.6 11.3 0.01 0.09 0.09 88 1009.5
20190420112020 65 216 4.3 11.3 0.01 0.09 0.09 87 1009.4
20190420111020 65 202 2.6 11.3 0.01 0.09 0.09 87 1009.1
20190420110020 66 220 3.5 11.3 0.01 0.09 0.09 86 1009.2
20190420105020 66 219 3.5 9.6 0.01 0.09 0.09 85 1009.4
20190420104019 66 203 3.5 11.3 0.00 0.08 0.08 85 1009.3
20190420103019 66 223 4.3 11.3 0.00 0.08 0.08 85 1009.1
20190420102020 65 240 2.6 8.7 0.00 0.08 0.08 85 1009.1
20190420101020 65 219 2.6 9.6 0.00 0.08 0.08 85 1009.0
20190420100020 65 218 3.5 9.6 0.00 0.08 0.08 84 1009.0
20190420095020 66 223 3.5 11.3 0.00 0.08 0.08 84 1009.0
20190420094019 66 229 3.5 13.9 0.00 0.08 0.08 84 1008.8
20190420093019 66 226 4.3 13.9 0.00 0.08 0.08 84 1008.7
20190420091017 66 238 3.5 12.2 0.00 0.08 0.08 85 1008.3
20190420090019 66 210 3.5 12.2 0.00 0.08 0.08 85 1008.2
20190420085020 66 215 3.5 12.2 0.00 0.08 0.08 85 1008.2
20190420084020 66 210 3.5 12.2 0.00 0.08 0.08 85 1007.9
20190420083020 66 213 5.2 16.5 0.00 0.08 0.08 85 1007.7
20190420082019 66 220 5.2 16.5 0.00 0.08 0.08 84 1008.0
20190420081020 66 212 4.3 16.5 0.00 0.08 0.08 84 1007.1
20190420080020 67 234 5.2 16.5 0.00 0.08 0.08 84 1007.6
20190420075019 66 220 4.3 13.0 0.00 0.08 0.08 85 1007.9
20190420074019 66 217 3.5 13.0 0.00 0.08 0.08 85 1007.9
20190420073020 66 228 4.3 12.2 0.00 0.08 0.08 85 1007.9
20190420072019 66 218 3.5 10.4 0.00 0.08 0.08 85 1007.9
20190420071020 66 219 4.3 13.0 0.00 0.08 0.08 85 1007.8
20190420070020 66 224 4.3 13.0 0.00 0.08 0.08 85 1007.9
20190420065019 66 217 4.3 12.2 0.00 0.08 0.08 85 1007.9
20190420064019 66 234 4.3 13.9 0.00 0.08 0.08 85 1008.0
20190420063022 65 214 4.3 13.9 0.00 0.08 0.08 86 1008.2
20190420062020 65 232 3.5 12.2 0.00 0.08 0.08 86 1008.2
20190420061019 65 243 3.5 12.2 0.00 0.08 0.08 86 1008.1
20190420060020 65 219 3.5 11.3 0.00 0.08 0.08 86 1008.2
20190420055019 65 208 4.3 11.3 0.00 0.08 0.08 86 1008.5
20190420054019 65 203 4.3 13.0 0.06 0.08 0.08 87 1008.5
20190420053020 65 211 4.3 13.0 0.08 0.08 0.08 87 1008.5
20190420052019 65 215 3.5 12.2 0.08 0.08 0.08 87 1008.7
20190420051020 65 232 3.5 19.1 0.08 0.08 0.08 87 1008.8
20190420050020 65 214 3.5 19.1 0.08 0.08 0.08 88 1008.8
20190420045019 65 206 3.5 10.4 0.08 0.08 0.08 87 1008.8
20190420044019 65 209 3.5 10.4 0.02 0.02 0.02 85 1009.0
20190420043019 66 200 3.5 10.4 0.00 0.00 0.00 84 1008.9
20190420042020 66 226 3.5 12.2 0.00 0.00 0.00 84 1008.9
20190420041019 66 221 5.2 15.6 0.00 0.00 0.00 84 1009.0
20190420040019 66 229 4.3 15.6 0.00 0.00 0.00 84 1009.0
20190420035018 66 226 3.5 15.6 0.00 0.00 0.00 84 1009.0
20190420034018 66 211 4.3 13.0 0.00 0.00 0.00 83 1008.9
20190420033018 66 231 4.3 12.2 0.00 0.00 0.00 83 1009.1
20190420032018 66 226 4.3 12.2 0.00 0.00 0.00 83 1009.3
20190420031018 66 213 4.3 12.2 0.00 0.00 0.00 83 1009.3
20190420030018 65 224 4.3 13.9 0.00 0.00 0.00 84 1009.4
20190420025018 65 205 3.5 13.9 0.00 0.00 0.00 84 1009.3
20190420024018 65 206 3.5 12.2 0.00 0.00 0.00 83 1009.4
20190420023019 65 202 3.5 11.3 0.00 0.00 0.00 82 1009.4
20190420022019 66 207 3.5 11.3 0.00 0.00 0.00 82 1009.4
20190420021018 66 215 4.3 9.6 0.00 0.00 0.00 81 1009.5
20190420020018 66 224 2.6 7.8 0.00 0.00 0.00 81 1009.6
20190420015018 66 241 2.6 7.8 0.00 0.00 0.00 80 1009.7
20190420014018 67 209 2.6 12.2 0.00 0.00 0.00 80 1009.6
20190420013018 68 209 3.5 13.9 0.00 0.00 0.00 78 1009.7
20190420012018 68 217 4.3 15.6 0.00 0.00 0.00 77 1009.6
20190420011018 68 244 5.2 15.6 0.00 0.00 0.00 77 1009.7
20190420010018 68 244 3.5 13.9 0.00 0.00 0.00 77 1009.6
20190420005018 68 230 3.5 13.9 0.00 0.00 0.00 77 1009.6
20190420004018 68 242 4.3 10.4 0.00 0.00 0.00 77 1009.5
20190420003018 68 218 3.5 10.4 0.00 0.00 0.00 77 1009.3
20190420002018 68 223 2.6 9.6 0.00 0.00 0.00 76 1009.2
20190420001018 68 240 2.6 9.6 0.00 0.00 0.00 75 1009.0
20190420000020 68 223 2.6 9.6 0.00 0.00 0.00 75 1008.8
20190419235018 68 207 3.5 9.6 0.00 0.00 0.00 74 1008.9
20190419234018 69 232 1.7 15.6 0.00 0.00 0.00 71 1008.8
20190419233015 69 255 4.3 15.6 0.00 0.00 0.00 70 1008.5
20190419232019 70 222 4.3 12.2 0.00 0.00 0.00 70 1008.5
20190419231018 70 226 3.5 13.9 0.00 0.00 0.00 68 1008.3
20190419230018 70 232 5.2 15.6 0.00 0.00 0.00 68 1008.3
20190419225018 70 250 5.2 15.6 0.00 0.00 0.00 67 1008.3
20190419224018 71 252 4.3 15.6 0.00 0.00 0.00 66 1008.1
20190419223018 71 256 4.3 17.4 0.00 0.00 0.00 66 1008.0
20190419222018 71 225 3.5 17.4 0.00 0.00 0.00 65 1008.0